Time;durP1;ratioP1;P1;durP2;ratioP2;P2;SDS_P1;SDS_P2;PMS_P1;PMS_P2;Temp;Humidity;BMP_temperature;BMP_pressure;BME280_temperature;BME280_humidity;BME280_pressure;Samples;Min_cycle;Max_cycle;Signal;HPM_P1;HPM_P2
2022/06/17 02:49:21;;;;;;;4.88;1.83;;;18.00;69.00;;;;;;2105320;28;20134;-93
2022/06/17 02:50:27;;;;;;;3.75;1.52;;;18.00;69.00;;;;;;2093138;28;20037;-92
2022/06/17 02:51:37;;;;;;;4.57;2.03;;;17.90;69.10;;;;;;2090432;28;20059;-93
2022/06/17 02:52:40;;;;;;;3.88;1.85;;;17.90;69.30;;;;;;2097995;28;20024;-93
2022/06/17 02:53:42;;;;;;;3.58;2.00;;;17.90;69.50;;;;;;2089471;28;20036;-93
2022/06/17 02:54:50;;;;;;;4.00;1.95;;;17.90;69.70;;;;;;2081665;28;20053;-93
2022/06/17 02:55:50;;;;;;;4.28;1.90;;;18.00;69.90;;;;;;2083194;28;20034;-92
2022/06/17 02:56:55;;;;;;;4.45;2.25;;;17.90;70.00;;;;;;2081688;28;20037;-93
2022/06/17 02:58:04;;;;;;;3.63;1.80;;;17.90;70.10;;;;;;2082433;28;20076;-93
2022/06/17 02:59:26;;;;;;;3.15;2.00;;;17.90;70.30;;;;;;2091068;28;20149;-93
2022/06/17 03:00:27;;;;;;;3.92;2.10;;;17.90;70.40;;;;;;2096890;28;20039;-92
2022/06/17 03:01:28;;;;;;;3.70;1.88;;;17.90;70.50;;;;;;2090181;28;20064;-94
2022/06/17 03:02:37;;;;;;;4.65;2.05;;;17.90;70.60;;;;;;2064812;28;20053;-94
2022/06/17 03:03:39;;;;;;;4.30;2.00;;;17.90;70.70;;;;;;2084711;28;20036;-93
2022/06/17 03:04:43;;;;;;;3.55;2.08;;;17.90;70.80;;;;;;2080599;28;20311;-93
2022/06/17 03:05:45;;;;;;;3.08;1.60;;;17.80;70.90;;;;;;2083168;28;20558;-93
2022/06/17 03:06:49;;;;;;;4.10;2.13;;;17.80;71.10;;;;;;2090409;28;20154;-93
2022/06/17 03:07:54;;;;;;;4.10;2.10;;;17.90;71.20;;;;;;2089734;28;20021;-93
2022/06/17 03:10:19;;;;;;;2.97;1.80;;;17.90;71.30;;;;;;2095752;28;20486;-92
2022/06/17 03:44:21;;;;;;;3.65;1.85;;;17.40;71.90;;;;;;2114871;28;20087;-93
2022/06/17 03:45:26;;;;;;;3.97;2.00;;;17.40;72.00;;;;;;2108047;28;20036;-93
2022/06/17 03:46:31;;;;;;;3.67;1.92;;;17.40;72.20;;;;;;2108000;28;20090;-92
2022/06/17 03:47:49;;;;;;;3.85;2.25;;;17.40;72.30;;;;;;2099701;28;20032;-92
2022/06/17 03:48:59;;;;;;;3.92;2.28;;;17.50;73.20;;;;;;2101678;28;20036;-93
2022/06/17 03:50:05;;;;;;;3.30;2.20;;;17.40;72.60;;;;;;2099176;28;20120;-92
2022/06/17 03:51:21;;;;;;;4.65;2.22;;;17.40;72.70;;;;;;2107146;28;20289;-93
2022/06/17 03:52:32;;;;;;;3.75;2.03;;;17.50;72.90;;;;;;2104227;28;20418;-93
2022/06/17 03:53:36;;;;;;;5.28;2.58;;;17.50;72.90;;;;;;2100455;28;20037;-93
2022/06/17 03:54:37;;;;;;;3.30;1.98;;;17.50;73.00;;;;;;2099768;28;20037;-93
2022/06/17 03:55:37;;;;;;;4.07;2.30;;;17.50;73.10;;;;;;2091191;28;20075;-93
2022/06/17 03:56:41;;;;;;;3.13;2.20;;;17.50;73.10;;;;;;2082894;28;20396;-93
2022/06/17 03:57:45;;;;;;;5.07;2.35;;;17.50;73.20;;;;;;2099433;28;20155;-93
2022/06/17 03:58:46;;;;;;;3.67;2.38;;;17.60;73.30;;;;;;2099797;28;20082;-93
2022/06/17 03:59:49;;;;;;;3.08;2.10;;;17.60;73.30;;;;;;2099739;28;20049;-92
2022/06/17 04:01:00;;;;;;;5.75;2.63;;;17.60;73.30;;;;;;2091132;28;20037;-92
2022/06/17 04:02:09;;;;;;;4.07;2.60;;;17.70;73.30;;;;;;2093677;28;20131;-93
2022/06/17 04:03:17;;;;;;;5.45;2.63;;;17.70;73.20;;;;;;2098353;28;20151;-93
2022/06/17 04:04:26;;;;;;;4.53;2.70;;;17.80;73.30;;;;;;2106065;28;20071;-93
2022/06/17 04:05:28;;;;;;;4.78;2.67;;;17.80;73.20;;;;;;2099730;28;20124;-93
2022/06/17 04:06:33;;;;;;;3.92;2.20;;;17.80;73.90;;;;;;2098101;28;20044;-93
2022/06/17 04:07:35;;;;;;;5.55;2.50;;;17.90;73.20;;;;;;2099370;28;20043;-93
2022/06/17 04:08:59;;;;;;;4.22;2.60;;;17.90;73.10;;;;;;2107647;28;20028;-93
2022/06/17 04:10:00;;;;;;;4.53;2.40;;;18.00;73.10;;;;;;2095643;28;20517;-91
2022/06/17 04:11:01;;;;;;;4.22;2.53;;;18.10;72.90;;;;;;2082687;28;20038;-91
2022/06/17 04:12:26;;;;;;;4.03;2.40;;;18.10;72.90;;;;;;2098497;28;20410;-93
2022/06/17 04:13:30;;;;;;;4.28;2.50;;;18.20;72.80;;;;;;2096863;28;20031;-92
2022/06/17 04:14:35;;;;;;;4.60;2.42;;;18.20;72.60;;;;;;2099200;28;20043;-92
2022/06/17 04:15:43;;;;;;;4.78;2.60;;;18.30;72.50;;;;;;2100169;28;20033;-93
2022/06/17 04:16:53;;;;;;;3.35;2.35;;;18.40;72.40;;;;;;2100282;28;20056;-94
2022/06/17 04:17:54;;;;;;;4.03;2.08;;;18.40;72.30;;;;;;2100379;28;20036;-93
2022/06/17 04:19:15;;;;;;;3.63;2.40;;;18.40;72.30;;;;;;2082669;28;20128;-94
2022/06/17 04:20:44;;;;;;;3.78;2.47;;;18.40;72.20;;;;;;2085927;28;20107;-94
2022/06/17 04:21:47;;;;;;;5.00;2.30;;;18.50;72.20;;;;;;2100538;28;20134;-92
2022/06/17 04:22:52;;;;;;;3.90;2.42;;;18.50;72.10;;;;;;2099787;28;20076;-92
2022/06/17 04:23:57;;;;;;;3.53;2.40;;;18.50;72.10;;;;;;2091219;28;20132;-93
2022/06/17 04:25:31;;;;;;;4.50;2.70;;;18.50;72.10;;;;;;2085873;28;20040;-92
2022/06/17 04:26:42;;;;;;;5.20;2.58;;;18.50;72.00;;;;;;2106356;28;20040;-95
2022/06/17 04:28:31;;;;;;;3.55;2.40;;;18.50;72.00;;;;;;2111622;28;20043;-96
2022/06/17 04:31:27;;;;;;;3.58;2.33;;;18.50;71.90;;;;;;2103754;28;20035;-96
2022/06/17 04:32:50;;;;;;;3.38;1.90;;;18.60;71.70;;;;;;2101933;28;20048;-94
2022/06/17 04:34:11;;;;;;;4.30;2.38;;;18.60;71.70;;;;;;2102157;28;20033;-94
2022/06/17 04:35:13;;;;;;;;;;;18.50;71.70;;;;;;2095273;28;20043;-93
2022/06/17 04:36:22;;;;;;;4.53;2.08;;;18.50;71.60;;;;;;2086763;28;19912;-94
2022/06/17 04:37:25;;;;;;;6.07;2.40;;;18.50;71.60;;;;;;2086100;28;20045;-94
2022/06/17 04:38:29;;;;;;;4.43;2.60;;;18.50;71.60;;;;;;2063361;28;20054;-93
2022/06/17 04:39:54;;;;;;;3.75;2.33;;;18.50;71.70;;;;;;2072481;28;20031;-94
2022/06/17 04:41:01;;;;;;;3.60;2.20;;;18.50;71.70;;;;;;2086385;28;20045;-95
2022/06/17 04:42:07;;;;;;;5.05;2.40;;;18.50;71.80;;;;;;2088872;28;20033;-94
2022/06/17 04:43:59;;;;;;;5.60;2.40;;;18.60;71.90;;;;;;2089580;28;20056;-91
2022/06/17 04:45:20;;;;;;;3.70;2.10;;;18.60;71.80;;;;;;2107358;28;20075;-94
2022/06/17 04:46:49;;;;;;;4.35;2.20;;;18.50;71.80;;;;;;2098468;28;20126;-93
2022/06/17 04:47:51;;;;;;;3.40;2.22;;;18.50;71.80;;;;;;2084441;28;20051;-93
2022/06/17 04:48:57;;;;;;;3.63;2.33;;;18.50;71.80;;;;;;2073836;28;20104;-94
2022/06/17 04:50:02;;;;;;;3.80;2.33;;;18.50;71.80;;;;;;2074987;28;20447;-95
2022/06/17 04:51:04;;;;;;;3.75;2.35;;;18.60;71.80;;;;;;2082048;28;20033;-94
2022/06/17 04:52:11;;;;;;;3.40;2.40;;;18.60;71.80;;;;;;2077927;28;20048;-94
2022/06/17 04:53:13;;;;;;;3.85;2.63;;;18.50;71.70;;;;;;2082954;28;20045;-94
2022/06/17 04:54:15;;;;;;;4.15;2.60;;;18.60;71.70;;;;;;2087141;28;20188;-94
2022/06/17 04:55:32;;;;;;;3.92;2.38;;;18.50;71.60;;;;;;2080251;28;20578;-93
2022/06/17 04:56:47;;;;;;;3.85;2.47;;;18.50;71.60;;;;;;2076923;28;20030;-94
2022/06/17 04:57:53;;;;;;;4.03;2.50;;;18.60;71.60;;;;;;2078112;28;20169;-93
2022/06/17 04:58:54;;;;;;;4.30;2.40;;;18.50;71.50;;;;;;2084012;28;20042;-95
2022/06/17 05:00:01;;;;;;;3.38;2.20;;;18.60;71.50;;;;;;2083009;28;20042;-93
2022/06/17 05:01:02;;;;;;;3.70;2.55;;;18.60;71.50;;;;;;2079958;28;20076;-94
2022/06/17 05:02:14;;;;;;;4.65;2.30;;;18.60;71.50;;;;;;2086627;28;20061;-92
2022/06/17 05:03:16;;;;;;;3.85;2.40;;;18.50;71.40;;;;;;2096919;28;20052;-94
2022/06/17 05:04:18;;;;;;;4.53;2.30;;;18.60;71.40;;;;;;2089225;28;20561;-94
2022/06/17 05:05:28;;;;;;;3.78;2.60;;;18.60;71.40;;;;;;2091367;28;20032;-94
2022/06/17 05:06:29;;;;;;;4.75;2.60;;;18.60;71.30;;;;;;2102064;28;20041;-94
2022/06/17 05:07:37;;;;;;;3.50;2.20;;;18.60;71.40;;;;;;2092973;28;20063;-94
2022/06/17 05:08:43;;;;;;;4.38;2.50;;;18.60;71.40;;;;;;2095191;28;20104;-94
2022/06/17 05:09:49;;;;;;;3.60;2.40;;;18.60;71.40;;;;;;2093026;28;20029;-93
2022/06/17 05:11:07;;;;;;;4.53;2.55;;;18.60;71.40;;;;;;2102451;28;20040;-93
2022/06/17 05:12:21;;;;;;;3.90;2.70;;;18.60;71.40;;;;;;2100161;28;20036;-95
2022/06/17 05:13:35;;;;;;;3.38;2.20;;;18.60;71.40;;;;;;2095222;28;20044;-94
2022/06/17 05:14:52;;;;;;;5.00;2.50;;;18.60;71.40;;;;;;2093275;28;20029;-94
2022/06/17 05:15:56;;;;;;;4.07;2.38;;;18.60;71.30;;;;;;2102145;28;20036;-94
2022/06/17 05:17:00;;;;;;;4.78;2.58;;;18.60;71.30;;;;;;2091101;28;20618;-94
2022/06/17 05:18:01;;;;;;;4.93;2.58;;;18.60;71.20;;;;;;2095524;28;20036;-95
2022/06/17 05:19:02;;;;;;;4.07;2.45;;;18.60;71.20;;;;;;2091740;28;20037;-94
2022/06/17 05:20:03;;;;;;;3.97;2.55;;;18.60;71.20;;;;;;2098874;28;20047;-95
2022/06/17 05:21:04;;;;;;;5.50;2.70;;;18.70;71.30;;;;;;2088840;28;20046;-94
2022/06/17 05:22:15;;;;;;;4.00;2.78;;;18.70;71.20;;;;;;2073477;28;20059;-93
2022/06/17 05:23:17;;;;;;;3.80;2.33;;;18.70;71.20;;;;;;2080870;28;20103;-94
2022/06/17 05:24:19;;;;;;;4.50;2.63;;;18.70;71.20;;;;;;2098637;28;20110;-94
2022/06/17 05:25:39;;;;;;;5.18;2.33;;;18.70;71.20;;;;;;2089350;28;20035;-90
2022/06/17 05:26:40;;;;;;;6.53;2.60;;;18.80;71.20;;;;;;2094864;28;20132;-91
2022/06/17 05:27:40;;;;;;;4.47;2.55;;;18.80;71.20;;;;;;2097865;28;20029;-92
2022/06/17 05:28:41;;;;;;;3.47;2.42;;;18.80;71.10;;;;;;2087470;28;20532;-87
2022/06/17 05:29:42;;;;;;;5.40;2.55;;;18.80;71.00;;;;;;2077431;28;20046;-90
2022/06/17 05:30:47;;;;;;;4.45;2.38;;;18.90;71.00;;;;;;2081426;28;20496;-89
2022/06/17 05:31:49;;;;;;;4.97;2.70;;;18.90;71.00;;;;;;2086705;28;20186;-89
2022/06/17 05:32:53;;;;;;;4.40;2.45;;;19.00;71.00;;;;;;2083682;28;20045;-90
2022/06/17 05:33:54;;;;;;;5.85;2.70;;;19.00;70.90;;;;;;2091254;28;20094;-89
2022/06/17 05:34:55;;;;;;;4.90;2.60;;;19.00;70.70;;;;;;2081130;28;20048;-89
2022/06/17 05:35:55;;;;;;;3.92;2.60;;;19.00;70.70;;;;;;2076920;28;20503;-90
2022/06/17 05:36:57;;;;;;;3.63;2.45;;;19.00;70.70;;;;;;2082517;28;20086;-90
2022/06/17 05:37:57;;;;;;;3.58;2.47;;;19.00;70.70;;;;;;2073523;28;20052;-89
2022/06/17 05:38:58;;;;;;;5.78;2.72;;;19.00;70.60;;;;;;2073954;28;20427;-90
2022/06/17 05:39:59;;;;;;;3.20;2.03;;;19.00;70.60;;;;;;2090028;28;20033;-90
2022/06/17 05:40:59;;;;;;;4.35;2.58;;;19.00;70.60;;;;;;2082341;28;20033;-91
2022/06/17 05:42:00;;;;;;;4.40;2.42;;;19.00;70.50;;;;;;2081728;28;20040;-89
2022/06/17 05:43:01;;;;;;;4.75;2.50;;;19.10;70.60;;;;;;2097438;28;20515;-88
2022/06/17 05:44:02;;;;;;;3.70;2.40;;;19.10;70.40;;;;;;2092059;28;20049;-89
2022/06/17 05:45:04;;;;;;;4.15;2.33;;;19.20;70.20;;;;;;2081848;28;20041;-89
2022/06/17 05:46:05;;;;;;;4.22;2.33;;;19.30;70.10;;;;;;2090019;28;20076;-88
2022/06/17 05:47:06;;;;;;;3.30;2.10;;;19.40;69.80;;;;;;2098305;28;20032;-89
2022/06/17 05:48:07;;;;;;;3.33;2.25;;;19.60;69.60;;;;;;2098500;28;20033;-90
2022/06/17 05:49:07;;;;;;;5.82;2.40;;;19.70;69.30;;;;;;2073700;28;20034;-88
2022/06/17 05:50:13;;;;;;;4.20;2.30;;;19.80;69.00;;;;;;2072088;28;20096;-88
2022/06/17 05:51:14;;;;;;;5.03;2.30;;;19.90;68.70;;;;;;2082827;28;20033;-88
2022/06/17 05:52:15;;;;;;;3.45;2.25;;;20.10;68.40;;;;;;2078839;28;20112;-86
2022/06/17 05:53:15;;;;;;;4.35;2.28;;;20.20;68.20;;;;;;2078847;28;20377;-87
2022/06/17 05:54:16;;;;;;;4.07;2.17;;;20.40;68.00;;;;;;2089736;28;20033;-87
2022/06/17 05:55:17;;;;;;;3.22;2.00;;;20.50;67.70;;;;;;2089559;28;20037;-87
2022/06/17 05:56:18;;;;;;;3.05;1.90;;;20.60;67.50;;;;;;2096241;28;20032;-87
2022/06/17 05:57:20;;;;;;;4.05;2.15;;;20.70;67.20;;;;;;2097492;28;20487;-87
2022/06/17 05:58:21;;;;;;;4.95;2.30;;;20.70;67.10;;;;;;2075605;28;20033;-87
2022/06/17 05:59:21;;;;;;;4.20;2.00;;;20.80;67.00;;;;;;2089887;28;20517;-87
2022/06/17 06:00:23;;;;;;;3.10;1.95;;;20.80;66.90;;;;;;2094082;28;20561;-87
2022/06/17 06:01:24;;;;;;;2.25;1.60;;;20.80;66.70;;;;;;2091781;28;20037;-87
2022/06/17 06:02:24;;;;;;;2.95;1.80;;;20.80;66.70;;;;;;2088691;28;20041;-87
2022/06/17 06:03:27;;;;;;;3.97;2.08;;;20.90;66.60;;;;;;2089988;28;20053;-88
2022/06/17 06:04:30;;;;;;;3.35;1.75;;;20.80;66.50;;;;;;2096477;28;20062;-87
2022/06/17 06:05:33;;;;;;;4.03;1.85;;;20.90;66.40;;;;;;2081831;28;20029;-86
2022/06/17 06:06:33;;;;;;;3.33;1.88;;;21.00;66.30;;;;;;2081472;28;20049;-87
2022/06/17 06:07:34;;;;;;;3.13;1.77;;;21.10;66.20;;;;;;2086986;28;20529;-87
2022/06/17 06:08:35;;;;;;;3.10;1.70;;;21.10;66.60;;;;;;2089787;28;20629;-87
2022/06/17 06:09:36;;;;;;;3.67;1.70;;;21.10;65.90;;;;;;2081966;28;20462;-88
2022/06/17 06:10:37;;;;;;;3.08;1.50;;;21.20;65.80;;;;;;2086865;28;20036;-96
2022/06/17 06:11:38;;;;;;;2.88;1.70;;;21.30;65.70;;;;;;2086854;28;20029;-90
2022/06/17 06:12:54;;;;;;;5.03;2.25;;;21.30;65.60;;;;;;2082108;28;20045;-88
2022/06/17 06:13:55;;;;;;;2.30;1.40;;;21.30;65.40;;;;;;2089849;28;20080;-89
2022/06/17 06:14:55;;;;;;;3.15;1.73;;;21.40;65.40;;;;;;2089787;28;20414;-88
2022/06/17 06:15:59;;;;;;;3.60;1.65;;;21.40;65.30;;;;;;2089934;28;20128;-89
2022/06/17 06:17:00;;;;;;;2.38;1.50;;;21.50;65.20;;;;;;2083304;28;20030;-90
2022/06/17 06:18:00;;;;;;;3.45;1.60;;;21.50;64.90;;;;;;2099084;28;20036;-90
2022/06/17 06:19:01;;;;;;;2.10;1.38;;;21.60;64.80;;;;;;2089989;28;20032;-89
2022/06/17 06:20:02;;;;;;;2.20;1.38;;;21.60;64.70;;;;;;2080452;28;20520;-90
2022/06/17 06:21:06;;;;;;;3.20;1.58;;;21.70;64.50;;;;;;2065661;28;20401;-89
2022/06/17 06:22:07;;;;;;;4.00;1.50;;;21.70;64.40;;;;;;2074643;28;20106;-90
2022/06/17 06:23:08;;;;;;;4.40;1.40;;;21.70;64.30;;;;;;2081792;28;20487;-89
2022/06/17 06:24:09;;;;;;;2.85;1.55;;;21.80;64.30;;;;;;2073737;28;20408;-88
2022/06/17 06:25:12;;;;;;;2.38;1.52;;;21.80;64.20;;;;;;2077031;28;20074;-88
2022/06/17 06:26:18;;;;;;;2.28;1.38;;;21.80;64.10;;;;;;2082357;28;20154;-89
2022/06/17 06:27:19;;;;;;;2.28;1.30;;;21.80;64.10;;;;;;2089889;28;20152;-88
2022/06/17 06:28:25;;;;;;;3.85;1.40;;;21.80;64.00;;;;;;2087278;28;20025;-89
2022/06/17 06:29:26;;;;;;;3.00;1.20;;;21.80;64.00;;;;;;2083435;28;20105;-89
2022/06/17 06:30:29;;;;;;;3.25;1.50;;;21.80;63.90;;;;;;2089920;28;20029;-89
2022/06/17 06:31:35;;;;;;;2.53;1.30;;;21.70;63.80;;;;;;2087019;28;20136;-88
2022/06/17 06:32:35;;;;;;;1.70;1.10;;;21.70;63.80;;;;;;2090516;28;20434;-89
2022/06/17 06:33:36;;;;;;;3.05;1.20;;;21.70;63.80;;;;;;2091849;28;20052;-89
2022/06/17 06:34:37;;;;;;;2.75;1.30;;;21.70;63.70;;;;;;2081434;28;20037;-89
2022/06/17 06:35:39;;;;;;;4.38;1.55;;;21.70;63.70;;;;;;2080446;28;20037;-90
2022/06/17 06:36:39;;;;;;;4.43;1.70;;;21.60;63.60;;;;;;2081371;28;20125;-89
2022/06/17 06:37:40;;;;;;;2.95;1.45;;;21.60;63.60;;;;;;2087724;28;20044;-88
2022/06/17 06:38:40;;;;;;;2.63;1.60;;;21.60;63.60;;;;;;2082527;28;20033;-88
2022/06/17 06:39:41;;;;;;;3.35;1.20;;;21.60;63.60;;;;;;2097890;28;20112;-88
2022/06/17 06:40:42;;;;;;;4.10;1.25;;;21.60;63.70;;;;;;2089768;28;20167;-88
2022/06/17 06:41:42;;;;;;;3.45;1.20;;;21.60;63.80;;;;;;2088628;28;20041;-88
2022/06/17 06:42:44;;;;;;;1.98;1.10;;;21.60;63.80;;;;;;2087986;28;20575;-88
2022/06/17 06:43:46;;;;;;;2.95;1.35;;;21.60;63.70;;;;;;2081309;28;20026;-89
2022/06/17 06:44:46;;;;;;;2.30;1.35;;;21.60;63.70;;;;;;2081067;28;20037;-89
2022/06/17 06:45:50;;;;;;;3.28;1.75;;;21.60;63.60;;;;;;2072690;28;20113;-89
2022/06/17 06:46:51;;;;;;;1.90;1.10;;;21.60;63.50;;;;;;2082072;28;20049;-89
2022/06/17 06:47:55;;;;;;;2.95;1.40;;;21.70;63.50;;;;;;2089273;28;20029;-88
2022/06/17 06:48:56;;;;;;;2.50;1.40;;;21.70;63.30;;;;;;2082282;28;20033;-88
2022/06/17 06:49:57;;;;;;;2.17;1.33;;;21.80;63.30;;;;;;2097705;28;20428;-85
2022/06/17 06:50:57;;;;;;;1.83;1.15;;;21.90;63.20;;;;;;2089133;28;20041;-86
2022/06/17 06:51:58;;;;;;;1.70;1.25;;;22.00;63.00;;;;;;2088164;28;20127;-92
2022/06/17 06:52:59;;;;;;;2.95;1.17;;;22.10;62.90;;;;;;2081336;28;20041;-87
2022/06/17 06:54:00;;;;;;;3.08;1.35;;;22.20;62.70;;;;;;2079975;28;20045;-87
2022/06/17 06:55:00;;;;;;;3.40;1.20;;;22.20;63.20;;;;;;2072015;28;20534;-87
2022/06/17 06:56:03;;;;;;;3.33;1.30;;;22.30;62.50;;;;;;2076435;28;20142;-87
2022/06/17 06:57:04;;;;;;;2.58;1.40;;;22.30;62.40;;;;;;2077719;28;20033;-87
2022/06/17 06:58:12;;;;;;;2.03;1.20;;;22.30;62.30;;;;;;2081014;28;20041;-88
2022/06/17 06:59:14;;;;;;;2.70;1.27;;;22.30;62.30;;;;;;2089335;28;20033;-88
2022/06/17 07:00:19;;;;;;;1.80;1.17;;;22.30;62.30;;;;;;2092988;28;20111;-88
2022/06/17 07:01:20;;;;;;;2.13;1.20;;;22.30;62.40;;;;;;2097493;28;20341;-88
2022/06/17 07:02:20;;;;;;;2.78;1.50;;;22.30;62.40;;;;;;2087814;28;20045;-89
2022/06/17 07:03:22;;;;;;;2.38;1.15;;;22.30;62.40;;;;;;2074971;28;20030;-89
2022/06/17 07:04:23;;;;;;;2.35;1.10;;;22.30;62.30;;;;;;2081658;28;20074;-89
2022/06/17 07:05:24;;;;;;;1.85;1.10;;;22.30;62.30;;;;;;2081180;28;20037;-88
2022/06/17 07:06:24;;;;;;;2.85;1.10;;;22.30;62.30;;;;;;2089518;28;20055;-87
2022/06/17 07:07:25;;;;;;;2.10;1.10;;;22.30;63.00;;;;;;2080691;28;20045;-87
2022/06/17 07:08:28;;;;;;;2.28;1.40;;;22.30;62.30;;;;;;2088090;28;20565;-87
2022/06/17 07:09:29;;;;;;;2.10;1.27;;;22.40;62.30;;;;;;2092002;28;20540;-86
2022/06/17 07:10:33;;;;;;;3.55;1.40;;;22.40;62.30;;;;;;2082486;28;20116;-87
2022/06/17 07:11:33;;;;;;;1.75;1.05;;;22.40;62.10;;;;;;2083857;28;20029;-87
2022/06/17 07:12:34;;;;;;;2.20;1.23;;;22.50;62.00;;;;;;2095846;28;20046;-87
2022/06/17 07:33:13;;;;;;;1.50;0.90;;;22.80;61.10;;;;;;2102759;28;20045;-88
2022/06/17 07:34:35;;;;;;;;;;;22.90;61.00;;;;;;2093003;28;20407;-88
2022/06/17 07:36:02;;;;;;;2.97;0.95;;;22.90;61.00;;;;;;2101757;28;20359;-87
2022/06/17 07:39:54;;;;;;;1.80;0.90;;;23.00;60.90;;;;;;2087005;28;20045;-87
2022/06/17 07:40:56;;;;;;;1.55;0.98;;;23.00;60.80;;;;;;2090858;28;20041;-87
2022/06/17 07:41:58;;;;;;;1.80;1.00;;;23.00;60.60;;;;;;2088311;28;20036;-87
2022/06/17 07:43:00;;;;;;;3.60;1.20;;;23.10;60.50;;;;;;2082176;28;20037;-87
2022/06/17 07:44:04;;;;;;;1.80;1.10;;;23.10;60.40;;;;;;2082415;28;20064;-87
2022/06/17 07:45:13;;;;;;;1.63;0.90;;;23.10;60.40;;;;;;2080411;28;20048;-88
2022/06/17 07:46:15;;;;;;;2.70;0.90;;;23.20;60.20;;;;;;2084099;28;20140;-88
2022/06/17 07:47:33;;;;;;;1.98;1.10;;;23.20;60.10;;;;;;2084439;28;20053;-88
2022/06/17 07:48:46;;;;;;;2.80;0.90;;;23.30;60.10;;;;;;2089231;28;20045;-88
2022/06/17 07:49:50;;;;;;;2.10;1.13;;;23.30;59.90;;;;;;2091291;28;20518;-88
2022/06/17 07:52:00;;;;;;;2.75;1.08;;;23.40;59.80;;;;;;2097916;28;20040;-88
2022/06/17 07:54:07;;;;;;;2.00;1.00;;;23.40;59.60;;;;;;2098382;28;20041;-88
2022/06/17 08:01:12;;;;;;;2.10;0.85;;;23.90;58.90;;;;;;2101954;28;20059;-88
2022/06/17 08:06:25;;;;;;;1.92;0.80;;;24.00;58.60;;;;;;2090531;28;20558;-87
2022/06/17 08:07:52;;;;;;;2.67;1.05;;;24.10;58.40;;;;;;2085568;28;20068;-86
2022/06/17 08:09:12;;;;;;;2.30;1.08;;;24.20;58.40;;;;;;2103067;28;20032;-87
2022/06/17 08:10:46;;;;;;;2.67;1.17;;;24.20;58.10;;;;;;2107405;28;20035;-88
2022/06/17 08:12:08;;;;;;;2.83;1.00;;;24.20;58.00;;;;;;2088892;28;20041;-87
2022/06/17 08:13:22;;;;;;;1.45;0.80;;;24.30;57.90;;;;;;2103310;28;20042;-87
2022/06/17 08:14:35;;;;;;;2.38;0.88;;;24.40;57.80;;;;;;2088144;28;20181;-90
2022/06/17 08:15:58;;;;;;;2.70;1.00;;;24.40;57.70;;;;;;2084103;28;20480;-92
2022/06/17 08:17:06;;;;;;;4.00;1.15;;;24.50;57.60;;;;;;2087078;28;20056;-91
2022/06/17 08:18:11;;;;;;;1.73;0.90;;;24.50;57.30;;;;;;2097415;28;20036;-92
2022/06/17 08:19:19;;;;;;;2.80;1.15;;;24.60;57.20;;;;;;2095298;28;20033;-92
2022/06/17 08:21:04;;;;;;;3.45;0.98;;;24.60;57.10;;;;;;2097949;28;20032;-92
2022/06/17 08:22:50;;;;;;;1.55;0.80;;;24.70;56.90;;;;;;2107791;28;20044;-92
2022/06/17 08:24:13;;;;;;;2.08;1.10;;;24.70;56.60;;;;;;2107111;28;20059;-92
2022/06/17 08:25:38;;;;;;;1.67;1.00;;;24.70;56.50;;;;;;2097949;28;20163;-92
2022/06/17 08:26:48;;;;;;;3.92;1.20;;;24.80;56.30;;;;;;2095693;28;20045;-92
2022/06/17 08:27:54;;;;;;;2.80;1.10;;;24.80;56.20;;;;;;2083881;28;20069;-92
2022/06/17 08:29:35;;;;;;;3.10;1.15;;;24.80;55.90;;;;;;2089994;28;20043;-92
2022/06/17 08:31:10;;;;;;;1.75;0.93;;;24.90;55.80;;;;;;2097844;28;20177;-92
2022/06/17 08:32:46;;;;;;;2.50;1.00;;;24.90;55.70;;;;;;2097233;28;20040;-92
2022/06/17 08:34:21;;;;;;;2.20;0.80;;;24.90;55.70;;;;;;2093867;28;20028;-92
2022/06/17 08:35:52;;;;;;;1.65;0.80;;;25.00;55.60;;;;;;2104066;28;20032;-92
2022/06/17 08:36:53;;;;;;;1.98;0.98;;;25.10;55.60;;;;;;2090314;28;20056;-92
2022/06/17 08:37:57;;;;;;;1.75;0.95;;;25.20;55.40;;;;;;2082163;28;20045;-92
2022/06/17 08:39:04;;;;;;;2.90;1.00;;;25.20;55.20;;;;;;2091058;28;20383;-92
2022/06/17 08:40:19;;;;;;;3.03;0.95;;;25.30;55.00;;;;;;2091545;28;20188;-92
2022/06/17 08:41:32;;;;;;;2.10;1.10;;;25.30;54.80;;;;;;2093846;28;20079;-92
2022/06/17 08:42:44;;;;;;;3.67;1.05;;;25.30;54.60;;;;;;2095951;28;20048;-92
2022/06/17 08:43:50;;;;;;;2.08;1.23;;;25.40;54.50;;;;;;2098045;28;20028;-92
2022/06/17 08:45:28;;;;;;;2.13;1.00;;;25.40;54.40;;;;;;2089231;28;20466;-93
2022/06/17 08:46:40;;;;;;;2.50;1.00;;;25.50;54.30;;;;;;2069273;28;20030;-92
2022/06/17 08:48:03;;;;;;;2.20;1.10;;;25.50;54.30;;;;;;2083931;28;20641;-92
2022/06/17 08:49:58;;;;;;;6.07;1.10;;;25.50;54.10;;;;;;2085278;28;20033;-92
2022/06/17 08:51:12;;;;;;;2.45;1.00;;;25.60;54.00;;;;;;2064990;28;20444;-92
2022/06/17 08:52:40;;;;;;;2.28;0.85;;;25.60;54.00;;;;;;2057533;28;20062;-92
2022/06/17 08:54:08;;;;;;;1.25;0.80;;;25.60;53.70;;;;;;2091037;28;20449;-91
2022/06/17 08:55:38;;;;;;;1.55;1.00;;;25.70;53.70;;;;;;2098866;28;20027;-92
2022/06/17 08:57:16;;;;;;;1.85;0.85;;;25.70;53.60;;;;;;2100903;28;20051;-91
2022/06/17 08:59:19;;;;;;;1.95;1.00;;;25.70;53.40;;;;;;2078223;28;20025;-93
2022/06/17 09:01:36;;;;;;;1.95;0.82;;;25.80;53.30;;;;;;2102489;28;20066;-92
2022/06/17 09:03:28;;;;;;;3.60;1.20;;;25.80;53.30;;;;;;2097536;28;20063;-92
2022/06/17 09:05:54;;;;;;;3.03;1.20;;;25.90;53.10;;;;;;2090165;28;20033;-92
2022/06/17 09:07:13;;;;;;;1.98;1.02;;;26.00;52.90;;;;;;2082375;28;20567;-91
2022/06/17 09:08:53;;;;;;;3.22;1.17;;;26.00;52.60;;;;;;2085256;28;20526;-91
2022/06/17 09:10:23;;;;;;;1.92;1.20;;;26.10;52.30;;;;;;2090554;28;20029;-91
2022/06/17 09:11:57;;;;;;;1.92;1.00;;;26.10;52.20;;;;;;2090155;28;20131;-91
2022/06/17 09:13:29;;;;;;;2.45;1.15;;;26.20;52.00;;;;;;2083640;28;20076;-91
2022/06/17 09:14:53;;;;;;;4.25;1.33;;;26.20;51.60;;;;;;2086246;28;20044;-92
2022/06/17 09:16:12;;;;;;;3.97;1.38;;;26.30;51.80;;;;;;2083020;28;20041;-92
2022/06/17 09:17:44;;;;;;;3.83;1.30;;;26.30;51.80;;;;;;2083286;28;20050;-91
2022/06/17 09:19:04;;;;;;;2.03;0.98;;;26.30;51.80;;;;;;2092286;28;20041;-92
2022/06/17 09:20:15;;;;;;;1.60;1.00;;;26.40;51.80;;;;;;2090822;28;20037;-92
2022/06/17 09:21:46;;;;;;;2.33;0.95;;;26.40;51.80;;;;;;2095426;28;20147;-91
2022/06/17 09:22:57;;;;;;;2.40;1.05;;;26.50;51.50;;;;;;2089560;28;20040;-91
2022/06/17 09:24:34;;;;;;;3.55;1.10;;;26.60;51.30;;;;;;2084457;28;20137;-90
2022/06/17 09:25:57;;;;;;;2.67;0.98;;;26.60;51.10;;;;;;2088800;28;20041;-91
2022/06/17 09:27:24;;;;;;;2.08;1.10;;;26.50;51.10;;;;;;2081850;28;20183;-91
2022/06/17 09:29:01;;;;;;;1.80;1.00;;;26.60;51.20;;;;;;2079244;28;20529;-90
2022/06/17 09:30:31;;;;;;;1.15;0.80;;;26.60;51.10;;;;;;2097569;28;20029;-91
2022/06/17 09:31:52;;;;;;;1.90;1.00;;;26.60;51.00;;;;;;2083086;28;20038;-91
2022/06/17 09:33:22;;;;;;;2.50;0.82;;;26.60;50.90;;;;;;2072689;28;20049;-91
2022/06/17 09:35:09;;;;;;;1.38;0.70;;;26.70;50.70;;;;;;2086768;28;20106;-91
2022/06/17 09:36:41;;;;;;;3.80;1.00;;;26.70;50.60;;;;;;2082753;28;20533;-91
2022/06/17 09:38:59;;;;;;;1.85;0.70;;;26.90;50.50;;;;;;2102724;28;20062;-93
2022/06/17 09:40:42;;;;;;;2.55;1.00;;;26.90;50.30;;;;;;2090524;28;20040;-92
2022/06/17 09:42:35;;;;;;;2.17;0.95;;;26.90;50.10;;;;;;2096224;28;20040;-91
2022/06/17 09:44:02;;;;;;;2.10;0.95;;;27.00;50.00;;;;;;2081565;28;20561;-91
2022/06/17 09:45:40;;;;;;;3.67;1.10;;;27.00;50.00;;;;;;2092790;28;20132;-91
2022/06/17 09:47:05;;;;;;;3.42;1.20;;;27.10;49.90;;;;;;2094731;28;20059;-91
2022/06/17 09:48:41;;;;;;;2.70;1.00;;;27.10;50.50;;;;;;2099935;28;20119;-91
2022/06/17 09:49:56;;;;;;;2.90;1.00;;;27.20;49.70;;;;;;2107752;28;20036;-91
2022/06/17 09:51:19;;;;;;;2.03;1.10;;;27.30;49.90;;;;;;2109735;28;20166;-91
2022/06/17 09:53:03;;;;;;;1.67;1.00;;;27.30;49.80;;;;;;2100504;28;20028;-91
2022/06/17 09:54:49;;;;;;;2.58;0.90;;;27.30;49.70;;;;;;2098755;28;20044;-91
2022/06/17 09:56:09;;;;;;;3.25;1.20;;;27.40;49.60;;;;;;2103686;28;20036;-91
2022/06/17 09:58:57;;;;;;;4.22;1.30;;;27.50;49.40;;;;;;2077968;28;20089;-91
2022/06/17 10:00:17;;;;;;;2.15;1.10;;;27.50;49.60;;;;;;2098460;28;20072;-91
2022/06/17 10:01:27;;;;;;;1.65;1.02;;;27.60;49.20;;;;;;2083364;28;20041;-90
2022/06/17 10:02:48;;;;;;;2.60;1.30;;;27.60;49.00;;;;;;2095241;28;20048;-92
2022/06/17 10:04:18;;;;;;;3.40;1.17;;;27.50;48.70;;;;;;2098722;28;20093;-91
2022/06/17 10:05:59;;;;;;;2.53;1.23;;;27.50;48.80;;;;;;2099286;28;20059;-92
2022/06/17 10:07:53;;;;;;;1.85;0.98;;;27.50;48.70;;;;;;2099109;28;20040;-91
2022/06/17 10:09:11;;;;;;;2.13;0.85;;;27.60;48.60;;;;;;2096507;28;20020;-91
2022/06/17 10:10:23;;;;;;;1.58;0.95;;;27.60;48.50;;;;;;2101551;28;20045;-91
2022/06/17 10:12:04;;;;;;;2.97;1.00;;;27.60;48.40;;;;;;2106369;28;20054;-92
2022/06/17 10:13:13;;;;;;;3.05;1.00;;;27.60;48.30;;;;;;2096789;28;20048;-92
2022/06/17 10:14:29;;;;;;;3.30;1.00;;;27.60;48.30;;;;;;2089098;28;20052;-91